Tropical Cyclones
[Index]
Main Index Home Page Stock Weather Photos Extreme Storms Discussion Storm News and Storm Chasing Reports Tropical Cyclones / Hurricanes / Typhoons Weather Data and Links Wild Fires / Bushfires Weather Observation Techniques Weather Picture Catalogue Tornado Pictures and Reports Stock Video Footage and DVDs for sale
Season 2006-2007 Tropical Cyclone BONDO Track Map
Season 2006-2007 Summaries: [BoM-AU] [JTWC-AU] [JTWC-SIO] [JTWC-SPAC] [JTWC-SH]
<<- Previous TC | JTWC 2006-2007 Season | Next TC ->>

click for intensity scale information  Lat/long Grid: Show Hide

 Date Labels: Show Hide

Joint Typhoon Warning Centre Cyclone Data

Name: BONDO

16 Dec 2006 00:00 UTC to 26 Dec 2006 18:00 UTC

    date/time    lat    long     hPa   cat  kts
2006-12-16 00    7.3    69.1    1006         15          
2006-12-16 06    7.3    68.2    1006         15          
2006-12-16 12    7.8    67.2    1004         20          
2006-12-16 18    8.6    66.5    1002         25          
2006-12-17 00    9.3    65.8    1002         25          
2006-12-17 06    9.9    65.6    1000         30          
2006-12-17 12   10.4    65.4    1000         30          
2006-12-17 18   10.7    65.0    1000         30          
2006-12-18 00   10.8    64.4     997         35          
2006-12-18 06   11.0    63.7     994    1    40          
2006-12-18 12   11.1    62.6     993    1    40          
2006-12-18 18   11.1    61.4     984    2    55          
2006-12-19 00   10.8    60.3     976    2    65          
2006-12-19 00   10.8    60.3     976    2    65          
2006-12-19 06   10.5    59.4     956    3    90          
2006-12-19 06   10.5    59.4     956    3    90          
2006-12-19 06   10.5    59.4     956    3    90          
2006-12-19 12   10.6    58.5     927    4   115          
2006-12-19 12   10.6    58.5     927    4   115          
2006-12-19 12   10.6    58.5     927    4   115          
2006-12-19 18   10.7    57.4     904    5   135          
2006-12-19 18   10.7    57.4     904    5   135          
2006-12-19 18   10.7    57.4     904    5   135          
2006-12-20 00   10.8    56.0     904    5   135          
2006-12-20 00   10.8    56.0     904    5   135          
2006-12-20 00   10.8    56.0     904    5   135          
2006-12-20 06   10.6    55.0     910    5   130          
2006-12-20 06   10.6    55.0     910    5   130          
2006-12-20 06   10.6    55.0     910    5   130          
2006-12-20 12   10.2    54.1     922    4   120          
2006-12-20 12   10.2    54.1     922    4   120          
2006-12-20 12   10.2    54.1     922    4   120          
2006-12-20 18    9.9    53.1     927    4   115          
2006-12-20 18    9.9    53.1     927    4   115          
2006-12-20 18    9.9    53.1     927    4   115          
2006-12-21 00    9.6    52.2     938    4   105          
2006-12-21 00    9.6    52.2     938    4   105          
2006-12-21 00    9.6    52.2     938    4   105          
2006-12-21 06    9.5    51.5     927    4   115          
2006-12-21 06    9.5    51.5     927    4   115          
2006-12-21 06    9.5    51.5     927    4   115          
2006-12-21 12    9.8    51.0     933    4   110          
2006-12-21 12    9.8    51.0     933    4   110          
2006-12-21 12    9.8    51.0     933    4   110          
2006-12-21 18   10.2    50.6     938    4   105          
2006-12-21 18   10.2    50.6     938    4   105          
2006-12-21 18   10.2    50.6     938    4   105          
2006-12-22 00   10.4    50.3     954    3    90          
2006-12-22 00   10.4    50.3     954    3    90          
2006-12-22 00   10.4    50.3     954    3    90          
2006-12-22 06   10.6    50.1     967    3    75          
2006-12-22 06   10.6    50.1     967    3    75          
2006-12-22 06   10.6    50.1     967    3    75          
2006-12-22 12   10.7    50.0     967    3    75          
2006-12-22 12   10.7    50.0     967    3    75          
2006-12-22 12   10.7    50.0     967    3    75          
2006-12-22 18   10.8    49.9     967    3    75          
2006-12-22 18   10.8    49.9     967    3    75          
2006-12-22 18   10.8    49.9     967    3    75          
2006-12-23 00   11.0    49.9     967    3    75          
2006-12-23 00   11.0    49.9     967    3    75          
2006-12-23 00   11.0    49.9     967    3    75          
2006-12-23 06   11.5    49.7     967    3    75          
2006-12-23 06   11.5    49.7     967    3    75          
2006-12-23 06   11.5    49.7     967    3    75          
2006-12-23 12   11.7    49.3     954    3    90          
2006-12-23 12   11.7    49.3     954    3    90          
2006-12-23 12   11.7    49.3     954    3    90          
2006-12-23 18   11.8    48.9     944    4   100          
2006-12-23 18   11.8    48.9     944    4   100          
2006-12-23 18   11.8    48.9     944    4   100          
2006-12-24 00   12.3    48.6     927    4   115          
2006-12-24 00   12.3    48.6     927    4   115          
2006-12-24 00   12.3    48.6     927    4   115          
2006-12-24 06   12.7    48.1     941    4   110          
2006-12-24 06   12.7    48.1     941    4   110          
2006-12-24 06   12.7    48.1     941    4   110          
2006-12-24 12   13.2    47.7     941    4   110          
2006-12-24 12   13.2    47.7     941    4   110          
2006-12-24 12   13.2    47.7     941    4   110          
2006-12-24 18   13.7    47.4     948    4   100          
2006-12-24 18   13.7    47.4     948    4   100          
2006-12-24 18   13.7    47.4     948    4   100          
2006-12-25 00   14.4    47.2     952    3    95          
2006-12-25 00   14.4    47.2     952    3    95          
2006-12-25 00   14.4    47.2     952    3    95          
2006-12-25 06   14.9    46.8     963    3    80          
2006-12-25 06   14.9    46.8     963    3    80          
2006-12-25 06   14.9    46.8     963    3    80          
2006-12-25 12   15.4    46.5     970    2    70          
2006-12-25 12   15.4    46.5     970    2    70          
2006-12-25 18   16.3    46.2     987    1    50          
2006-12-25 18   16.3    46.2     987    1    50          
2006-12-26 00   17.5    45.9     997         35          
2006-12-26 06   18.9    45.2    1002         25          
2006-12-26 12   19.7    43.9    1004         25          
2006-12-26 18   20.6    42.8    1004         20          
Winds are 1-min average.

Tropical cyclone tracks developed by Michael Bath using data from the Joint Typhoon Warning Centre Best Tracks and Google Maps.


[Australian Severe Weather index] [Copyright Notice] [Email Contacts] [Search This Site] [Privacy Policy]
Document: tropical_cyclone_bondo.htm Updated: 28 June 2017